createdAt,value
2023-05-02T00:00:55.196Z,94.01
2023-05-02T00:03:23.193Z,93.94
2023-05-02T00:05:50.961Z,94.15
2023-05-02T00:08:18.566Z,93.86
2023-05-02T00:10:46.186Z,94.26
2023-05-02T00:13:13.708Z,94.36
2023-05-02T00:15:41.292Z,94.48
2023-05-02T00:18:08.902Z,94.26
2023-05-02T00:20:36.383Z,94.25
2023-05-02T00:23:03.925Z,94.80
2023-05-02T00:25:31.699Z,95.01
2023-05-02T00:27:59.233Z,94.22
2023-05-02T00:30:26.850Z,94.92
2023-05-02T00:32:55.017Z,94.28
2023-05-02T00:35:22.795Z,94.52
2023-05-02T00:37:50.346Z,94.43
2023-05-02T00:40:18.009Z,95.17
2023-05-02T00:42:46.388Z,94.23
2023-05-02T00:45:13.999Z,94.87
2023-05-02T00:47:41.553Z,94.38
2023-05-02T00:50:09.358Z,94.28
2023-05-02T00:52:37.922Z,94.89
2023-05-02T00:55:06.348Z,94.64
2023-05-02T00:57:34.412Z,93.52
2023-05-02T01:00:05.120Z,94.41
2023-05-02T01:02:43.665Z,93.79
2023-05-02T01:05:28.278Z,94.60
2023-05-02T01:07:55.768Z,94.12
2023-05-02T01:10:26.811Z,94.39
2023-05-02T01:13:00.445Z,95.13
2023-05-02T01:15:28.826Z,94.72
2023-05-02T01:17:59.184Z,94.23
2023-05-02T01:20:28.842Z,94.91
2023-05-02T01:23:03.737Z,94.18
2023-05-02T01:25:48.228Z,93.91
2023-05-02T01:28:22.483Z,94.40
2023-05-02T01:30:51.880Z,94.18
2023-05-02T01:33:21.270Z,94.09
2023-05-02T01:35:51.852Z,94.54
2023-05-02T01:38:21.816Z,94.96
2023-05-02T01:40:52.073Z,95.11
2023-05-02T01:43:21.514Z,94.64
2023-05-02T01:45:51.514Z,94.58
2023-05-02T01:48:19.845Z,95.19
2023-05-02T01:50:48.898Z,94.77
2023-05-02T01:53:17.483Z,94.12
2023-05-02T01:55:46.569Z,94.83
2023-05-02T01:58:16.975Z,94.72
2023-05-02T02:00:46.556Z,94.72
2023-05-02T02:03:16.298Z,95.37
2023-05-02T02:05:44.378Z,94.42
2023-05-02T02:08:11.880Z,94.59
2023-05-02T02:10:46.969Z,93.70
2023-05-02T02:13:19.769Z,93.82
2023-05-02T02:15:51.159Z,94.25
2023-05-02T02:18:22.490Z,94.63
2023-05-02T02:20:52.523Z,93.96
2023-05-02T02:23:26.002Z,94.41
2023-05-02T02:25:55.086Z,94.89
2023-05-02T02:28:22.647Z,93.97
2023-05-02T02:30:50.382Z,94.00
2023-05-02T02:33:20.047Z,94.19
2023-05-02T02:35:58.251Z,94.19
2023-05-02T02:38:56.690Z,95.08
2023-05-02T02:41:32.065Z,94.69
2023-05-02T02:44:27.816Z,94.65
2023-05-02T02:47:09.221Z,94.61
2023-05-02T02:50:12.124Z,94.25
2023-05-02T02:52:57.999Z,93.76
2023-05-02T02:55:46.888Z,93.87
2023-05-02T02:58:27.326Z,94.34
2023-05-02T03:00:56.048Z,95.11
2023-05-02T03:03:29.230Z,94.73
2023-05-02T03:05:57.356Z,94.90
2023-05-02T03:08:25.518Z,94.53
2023-05-02T03:10:53.476Z,94.58
2023-05-02T03:13:21.486Z,94.85
2023-05-02T03:15:52.272Z,94.84
2023-05-02T03:18:26.697Z,94.40
2023-05-02T03:20:55.108Z,94.18
2023-05-02T03:23:22.885Z,94.82
2023-05-02T03:25:53.070Z,94.63
2023-05-02T03:28:24.325Z,94.75
2023-05-02T03:30:53.590Z,94.18
2023-05-02T03:33:22.315Z,94.16
2023-05-02T03:35:49.874Z,94.79
2023-05-02T03:38:17.507Z,94.21
2023-05-02T03:40:48.126Z,94.44
2023-05-02T03:43:15.812Z,95.16
2023-05-02T03:45:43.616Z,95.50
2023-05-02T03:48:11.583Z,94.89
2023-05-02T03:50:39.218Z,95.03
2023-05-02T03:53:08.359Z,94.83
2023-05-02T03:55:44.738Z,94.50
2023-05-02T03:58:19.442Z,94.76
2023-05-02T04:00:53.815Z,94.91
2023-05-02T04:03:22.797Z,94.57
2023-05-02T04:05:51.852Z,94.67
2023-05-02T04:08:19.776Z,94.77
2023-05-02T04:10:47.789Z,94.28
2023-05-02T04:13:15.499Z,94.95
2023-05-02T04:15:46.485Z,95.00
2023-05-02T04:18:17.905Z,95.09
2023-05-02T04:20:45.746Z,95.50
2023-05-02T04:23:17.756Z,95.48
2023-05-02T04:25:54.430Z,94.83
2023-05-02T04:28:25.573Z,95.51
2023-05-02T04:30:53.938Z,96.01
2023-05-02T04:33:24.700Z,95.50
2023-05-02T04:35:53.933Z,95.69
2023-05-02T04:38:23.540Z,95.34
2023-05-02T04:40:55.209Z,95.39
2023-05-02T04:43:30.847Z,95.30
2023-05-02T04:46:01.865Z,95.46
2023-05-02T04:48:33.861Z,95.61
2023-05-02T04:51:01.608Z,95.67
2023-05-02T04:53:30.826Z,95.47
2023-05-02T04:55:58.490Z,95.53
2023-05-02T04:58:26.462Z,95.97
2023-05-02T05:00:59.999Z,95.63
2023-05-02T05:03:30.081Z,95.75
2023-05-02T05:05:59.039Z,95.13
2023-05-02T05:08:27.508Z,95.50
2023-05-02T05:10:55.272Z,95.44
2023-05-02T05:13:23.826Z,95.71
2023-05-02T05:15:53.042Z,95.79
2023-05-02T05:18:24.535Z,95.61
2023-05-02T05:20:52.179Z,95.63
2023-05-02T05:23:19.672Z,94.97
2023-05-02T05:25:47.424Z,94.55
2023-05-02T05:28:18.733Z,94.86
2023-05-02T05:30:46.960Z,95.13
2023-05-02T05:33:19.280Z,94.93
2023-05-02T05:35:47.012Z,95.68
2023-05-02T05:38:14.539Z,95.60
2023-05-02T05:40:44.498Z,95.31
2023-05-02T05:43:12.668Z,95.77
2023-05-02T05:45:40.734Z,95.27
2023-05-02T05:48:08.495Z,95.26
2023-05-02T05:50:41.909Z,95.47
2023-05-02T05:53:09.649Z,95.63
2023-05-02T05:55:41.564Z,94.94
2023-05-02T05:58:10.195Z,94.95
2023-05-02T06:00:40.148Z,95.17
2023-05-02T06:03:09.863Z,95.13
2023-05-02T06:05:37.882Z,95.49
2023-05-02T06:08:05.465Z,95.22
2023-05-02T06:10:33.283Z,94.94
2023-05-02T06:13:01.680Z,94.67
2023-05-02T06:15:35.994Z,94.92
2023-05-02T06:18:06.022Z,95.75
2023-05-02T06:20:35.577Z,95.21
2023-05-02T06:23:03.117Z,94.39
2023-05-02T06:25:30.653Z,94.46
2023-05-02T06:27:58.160Z,94.04
2023-05-02T06:30:25.707Z,94.87
2023-05-02T06:32:53.278Z,95.11
2023-05-02T06:35:21.039Z,95.10
2023-05-02T06:37:48.548Z,95.02
2023-05-02T06:40:16.428Z,94.47
2023-05-02T06:42:43.936Z,94.59
2023-05-02T06:45:11.603Z,93.74
2023-05-02T06:47:39.163Z,93.48
2023-05-02T06:50:07.414Z,93.91
2023-05-02T06:52:34.891Z,93.57
2023-05-02T06:55:02.460Z,93.83
2023-05-02T06:57:30.723Z,94.64
2023-05-02T06:59:58.758Z,94.31
2023-05-02T07:02:26.824Z,93.62
2023-05-02T07:04:54.351Z,94.48
2023-05-02T07:07:22.282Z,93.52
2023-05-02T07:09:49.862Z,93.27
2023-05-02T07:12:17.355Z,93.20
2023-05-02T07:14:46.981Z,94.04
2023-05-02T07:17:15.897Z,93.30
2023-05-02T07:19:45.333Z,94.17
2023-05-02T07:22:13.524Z,93.20
2023-05-02T07:24:41.958Z,93.28
2023-05-02T07:27:10.753Z,93.57
2023-05-02T07:29:38.612Z,93.42
2023-05-02T07:32:07.101Z,94.58
2023-05-02T07:34:34.871Z,93.97
2023-05-02T07:37:02.632Z,93.59
2023-05-02T07:39:30.247Z,94.27
2023-05-02T07:41:57.836Z,94.02
2023-05-02T07:44:25.402Z,93.49
2023-05-02T07:46:53.123Z,93.21
2023-05-02T07:49:20.708Z,92.57
2023-05-02T07:51:48.264Z,91.83
2023-05-02T07:54:20.341Z,92.54
2023-05-02T07:56:48.962Z,92.02
2023-05-02T07:59:16.544Z,92.37
2023-05-02T08:01:44.671Z,91.80
2023-05-02T08:04:13.072Z,92.48
2023-05-02T08:06:41.103Z,91.41
2023-05-02T08:09:09.522Z,91.01
2023-05-02T08:11:37.464Z,91.06
2023-05-02T08:14:04.938Z,90.81
2023-05-02T08:16:32.632Z,90.94
2023-05-02T08:19:00.275Z,90.53
2023-05-02T08:21:28.484Z,90.52
2023-05-02T08:23:59.083Z,90.40
2023-05-02T08:26:28.109Z,90.62
2023-05-02T08:28:55.700Z,90.64
2023-05-02T08:31:23.416Z,90.37
2023-05-02T08:33:51.150Z,90.67
2023-05-02T08:36:19.629Z,89.51
2023-05-02T08:38:48.511Z,88.36
2023-05-02T08:41:18.067Z,87.91
2023-05-02T08:43:46.882Z,86.73
2023-05-02T08:46:17.360Z,86.12
2023-05-02T08:48:48.236Z,85.58
2023-05-02T08:51:17.136Z,85.68
2023-05-02T08:53:45.247Z,84.64
2023-05-02T08:56:13.519Z,83.41
2023-05-02T08:58:41.865Z,82.73
2023-05-02T09:01:17.891Z,81.97
2023-05-02T09:03:47.687Z,82.90
2023-05-02T09:06:22.926Z,83.01
2023-05-02T09:08:55.228Z,83.00
2023-05-02T09:11:23.068Z,82.70
2023-05-02T09:13:52.804Z,81.99
2023-05-02T09:16:27.290Z,82.48
2023-05-02T09:18:56.928Z,81.46
2023-05-02T09:21:27.089Z,80.73
2023-05-02T09:23:59.316Z,80.58
2023-05-02T09:26:33.399Z,80.26
2023-05-02T09:29:04.240Z,80.43
2023-05-02T09:31:54.344Z,79.74
2023-05-02T09:34:23.749Z,80.08
2023-05-02T09:36:54.715Z,80.22
2023-05-02T09:39:29.085Z,79.79
2023-05-02T09:41:58.480Z,79.82
2023-05-02T09:44:27.898Z,79.54
2023-05-02T09:46:57.652Z,79.75
2023-05-02T09:49:45.450Z,79.11
2023-05-02T09:52:15.569Z,79.71
2023-05-02T09:54:43.975Z,79.45
2023-05-02T09:57:11.604Z,78.62
2023-05-02T09:59:41.151Z,78.70
2023-05-02T10:02:11.759Z,78.82
2023-05-02T10:04:40.549Z,77.69
2023-05-02T10:07:10.678Z,76.96
2023-05-02T10:09:44.612Z,75.55
2023-05-02T10:12:15.675Z,75.09
2023-05-02T10:14:50.310Z,74.87
2023-05-02T10:17:28.353Z,74.43
2023-05-02T10:20:07.784Z,74.17
2023-05-02T10:22:36.916Z,74.58
2023-05-02T10:25:05.263Z,74.79
2023-05-02T10:27:33.838Z,74.73
2023-05-02T10:30:04.463Z,74.14
2023-05-02T10:32:34.819Z,74.93
2023-05-02T10:35:06.767Z,75.10
2023-05-02T10:37:37.157Z,75.15
2023-05-02T10:40:06.453Z,75.02
2023-05-02T10:42:39.135Z,74.94
2023-05-02T10:45:30.995Z,75.06
2023-05-02T10:48:14.192Z,75.01
2023-05-02T10:50:56.054Z,75.00
2023-05-02T10:53:27.483Z,75.32
2023-05-02T10:56:14.148Z,74.70
2023-05-02T10:58:43.171Z,75.80
2023-05-02T11:01:28.995Z,75.04
2023-05-02T11:04:07.944Z,75.65
2023-05-02T11:06:57.006Z,76.28
2023-05-02T11:09:24.503Z,75.92
2023-05-02T11:11:52.893Z,75.90
2023-05-02T11:14:26.276Z,75.86
2023-05-02T11:17:00.093Z,75.45
2023-05-02T11:19:31.037Z,75.89
2023-05-02T11:22:17.590Z,75.06
2023-05-02T11:24:49.529Z,75.69
2023-05-02T11:27:29.407Z,75.56
2023-05-02T11:30:07.228Z,75.90
2023-05-02T11:32:44.524Z,75.00
2023-05-02T11:35:22.044Z,75.03
2023-05-02T11:38:00.971Z,74.58
2023-05-02T11:40:29.436Z,75.13
2023-05-02T11:42:59.192Z,74.21
2023-05-02T11:45:37.523Z,73.57
2023-05-02T11:48:09.241Z,74.35
2023-05-02T11:50:48.742Z,74.34
2023-05-02T11:53:23.956Z,73.98
2023-05-02T11:55:54.338Z,73.83
2023-05-02T11:58:24.087Z,73.46
2023-05-02T12:00:53.007Z,73.45
2023-05-02T12:03:22.701Z,72.55
2023-05-02T12:05:51.454Z,72.02
2023-05-02T12:08:26.670Z,71.04
2023-05-02T12:10:57.509Z,71.97
2023-05-02T12:13:26.861Z,71.09
2023-05-02T12:15:55.707Z,71.09
2023-05-02T12:18:25.255Z,72.18
2023-05-02T12:20:55.447Z,72.19
2023-05-02T12:23:26.384Z,72.56
2023-05-02T12:25:54.301Z,71.92
2023-05-02T12:28:24.070Z,72.43
2023-05-02T12:30:52.002Z,72.15
2023-05-02T12:33:19.675Z,72.24
2023-05-02T12:35:47.941Z,72.22
2023-05-02T12:38:23.624Z,71.67
2023-05-02T12:40:57.803Z,70.82
2023-05-02T12:43:25.474Z,70.91
2023-05-02T12:46:10.636Z,69.22
2023-05-02T12:48:38.288Z,70.14
2023-05-02T12:51:06.102Z,70.28
2023-05-02T12:53:44.464Z,69.36
2023-05-02T12:56:13.459Z,69.97
2023-05-02T12:58:46.840Z,68.46
2023-05-02T13:01:15.782Z,68.50
2023-05-02T13:03:59.254Z,67.36
2023-05-02T13:06:28.101Z,65.95
2023-05-02T13:08:58.588Z,64.59
2023-05-02T13:11:26.250Z,63.57
2023-05-02T13:13:54.105Z,62.66
2023-05-02T13:16:21.905Z,62.25
2023-05-02T13:28:07.547Z,60.15
2023-05-02T13:30:35.311Z,60.61
2023-05-02T13:33:02.924Z,60.08
2023-05-02T13:35:31.390Z,60.07
2023-05-02T13:38:00.244Z,60.17
2023-05-02T13:40:28.322Z,59.25
2023-05-02T13:42:56.016Z,59.69
2023-05-02T13:45:23.600Z,59.92
2023-05-02T13:47:51.245Z,60.06
2023-05-02T13:50:19.048Z,60.13
2023-05-02T13:52:49.054Z,60.12
2023-05-02T13:55:17.240Z,60.35
2023-05-02T13:57:45.086Z,60.16
2023-05-02T14:00:13.194Z,60.41
2023-05-02T14:02:40.973Z,60.38
2023-05-02T14:05:09.076Z,60.26
2023-05-02T14:07:36.830Z,60.63
2023-05-02T14:10:05.489Z,60.53
2023-05-02T14:12:33.536Z,61.06
2023-05-02T14:15:01.421Z,61.04
2023-05-02T14:17:29.110Z,60.78
2023-05-02T14:19:56.748Z,61.02
2023-05-02T14:22:24.234Z,60.60
2023-05-02T14:24:51.869Z,60.61
2023-05-02T14:27:19.570Z,60.26
2023-05-02T14:29:48.260Z,59.77
2023-05-02T14:32:16.210Z,60.06
2023-05-02T14:34:43.923Z,60.13
2023-05-02T14:37:11.566Z,60.12
2023-05-02T14:39:40.462Z,60.03
2023-05-02T14:42:08.125Z,60.42
2023-05-02T14:44:35.782Z,60.23
2023-05-02T14:47:03.456Z,60.49
2023-05-02T14:49:31.151Z,61.00
2023-05-02T14:51:58.852Z,61.27
2023-05-02T14:54:28.606Z,61.35
2023-05-02T14:56:57.354Z,61.71
2023-05-02T14:59:28.110Z,61.84
2023-05-02T15:01:56.070Z,61.66
2023-05-02T15:04:24.454Z,61.81
2023-05-02T15:06:54.624Z,61.87
2023-05-02T15:09:23.402Z,61.98
2023-05-02T15:11:50.945Z,61.67
2023-05-02T15:14:19.104Z,61.50
2023-05-02T15:16:47.023Z,61.62
2023-05-02T15:19:14.602Z,61.12
2023-05-02T15:21:42.212Z,60.86
2023-05-02T15:24:10.732Z,60.90
2023-05-02T15:26:40.516Z,60.60
2023-05-02T15:29:08.279Z,60.61
2023-05-02T15:31:35.902Z,60.70
2023-05-02T15:34:03.630Z,60.86
2023-05-02T15:36:31.610Z,60.89
2023-05-02T15:38:59.318Z,60.89
2023-05-02T15:41:27.566Z,60.89
2023-05-02T15:43:55.271Z,60.93
2023-05-02T15:46:22.938Z,61.10
2023-05-02T15:48:51.206Z,61.16
2023-05-02T15:51:18.894Z,61.31
2023-05-02T15:53:49.850Z,61.38
2023-05-02T15:56:17.585Z,60.97
2023-05-02T15:58:45.355Z,61.11
2023-05-02T16:01:13.508Z,61.01
2023-05-02T16:03:41.405Z,61.35
2023-05-02T16:06:16.081Z,61.73
2023-05-02T16:08:43.714Z,61.23
2023-05-02T16:11:11.230Z,61.16
2023-05-02T16:13:38.884Z,61.28
2023-05-02T16:16:07.853Z,61.27
2023-05-02T16:18:35.512Z,61.14
2023-05-02T16:21:04.113Z,61.31
2023-05-02T16:23:31.728Z,61.16
2023-05-02T16:26:02.495Z,61.49
2023-05-02T16:28:30.137Z,61.76
2023-05-02T16:30:57.694Z,61.66
2023-05-02T16:33:25.332Z,61.69
2023-05-02T16:36:03.001Z,61.33
2023-05-02T16:38:30.806Z,61.87
2023-05-02T16:40:58.467Z,61.72
2023-05-02T16:43:26.161Z,61.71
2023-05-02T16:46:05.137Z,61.16
2023-05-02T16:48:33.849Z,61.66
2023-05-02T16:51:03.280Z,61.73
2023-05-02T16:53:32.041Z,61.98
2023-05-02T16:55:59.904Z,62.30
2023-05-02T16:58:31.196Z,61.88
2023-05-02T17:01:00.581Z,61.69
2023-05-02T17:03:29.767Z,62.11
2023-05-02T17:06:02.357Z,61.66
2023-05-02T17:08:30.530Z,61.73
2023-05-02T17:10:58.145Z,62.01
2023-05-02T17:13:26.051Z,61.96
2023-05-02T17:15:53.814Z,62.19
2023-05-02T17:18:22.067Z,62.59
2023-05-02T17:20:50.184Z,62.50
2023-05-02T17:23:17.844Z,62.59
2023-05-02T17:25:45.430Z,62.44
2023-05-02T17:28:13.241Z,62.61
2023-05-02T17:30:40.875Z,62.97
2023-05-02T17:33:08.578Z,62.67
2023-05-02T17:35:36.440Z,63.06
2023-05-02T17:38:04.084Z,63.02
2023-05-02T17:40:31.695Z,62.79
2023-05-02T17:42:59.674Z,63.08
2023-05-02T17:45:28.996Z,63.19
2023-05-02T17:47:56.742Z,63.53
2023-05-02T17:50:26.312Z,63.60
2023-05-02T17:52:53.949Z,63.55
2023-05-02T17:55:21.532Z,63.87
2023-05-02T17:57:49.558Z,64.23
2023-05-02T18:00:18.788Z,64.44
2023-05-02T18:02:46.528Z,64.21
2023-05-02T18:05:14.144Z,64.42
2023-05-02T18:07:41.735Z,64.62
2023-05-02T18:10:09.347Z,65.21
2023-05-02T18:12:37.308Z,65.60
2023-05-02T18:15:05.600Z,65.30
2023-05-02T18:17:33.854Z,65.24
2023-05-02T18:20:04.503Z,65.26
2023-05-02T18:22:33.818Z,65.47
2023-05-02T18:25:01.871Z,65.83
2023-05-02T18:27:29.743Z,66.12
2023-05-02T18:29:57.511Z,65.52
2023-05-02T18:32:26.277Z,65.75
2023-05-02T18:34:53.912Z,66.36
2023-05-02T18:37:22.990Z,66.35
2023-05-02T18:39:50.550Z,66.72
2023-05-02T18:42:18.118Z,66.06
2023-05-02T18:44:45.694Z,66.52
2023-05-02T18:47:13.807Z,67.04
2023-05-02T18:49:41.653Z,66.95
2023-05-02T18:52:09.520Z,67.06
2023-05-02T18:54:37.217Z,66.78
2023-05-02T18:57:05.310Z,67.27
2023-05-02T18:59:32.849Z,67.34
2023-05-02T19:02:00.997Z,67.19
2023-05-02T19:04:31.834Z,67.23
2023-05-02T19:06:59.444Z,67.26
2023-05-02T19:09:26.996Z,67.31
2023-05-02T19:11:55.170Z,67.46
2023-05-02T19:14:22.722Z,67.58
2023-05-02T19:16:51.034Z,67.53
2023-05-02T19:19:19.260Z,68.26
2023-05-02T19:21:48.136Z,67.83
2023-05-02T19:24:15.728Z,68.00
2023-05-02T19:26:43.392Z,68.00
2023-05-02T19:29:11.026Z,68.28
2023-05-02T19:31:39.804Z,68.83
2023-05-02T19:34:07.418Z,68.79
2023-05-02T19:36:38.211Z,68.98
2023-05-02T19:39:05.840Z,69.15
2023-05-02T19:41:33.442Z,69.13
2023-05-02T19:44:01.130Z,69.33
2023-05-02T19:46:30.404Z,69.15
2023-05-02T19:48:58.219Z,69.33
2023-05-02T19:51:28.234Z,69.73
2023-05-02T19:53:58.857Z,69.89
2023-05-02T19:56:27.467Z,69.73
2023-05-02T19:58:56.817Z,69.89
2023-05-02T20:01:26.890Z,70.08
2023-05-02T20:03:54.982Z,70.20
2023-05-02T20:06:22.755Z,70.20
2023-05-02T20:08:51.202Z,70.28
2023-05-02T20:11:18.768Z,70.35
2023-05-02T20:13:46.375Z,70.50
2023-05-02T20:16:23.302Z,70.46
2023-05-02T20:19:23.952Z,70.68
2023-05-02T20:21:52.655Z,70.69
2023-05-02T20:24:20.182Z,70.63
2023-05-02T20:26:48.727Z,70.62
2023-05-02T20:29:16.528Z,70.39
2023-05-02T20:31:44.481Z,71.03
2023-05-02T20:34:12.076Z,70.97
2023-05-02T20:37:37.504Z,70.92
2023-05-02T20:40:09.749Z,71.63
2023-05-02T20:42:40.798Z,71.67
2023-05-02T20:45:09.294Z,72.09
2023-05-02T20:47:36.791Z,71.99
2023-05-02T20:50:05.225Z,72.12
2023-05-02T20:52:33.090Z,72.04
2023-05-02T20:55:01.783Z,72.15
2023-05-02T21:02:08.370Z,72.65
2023-05-02T21:04:36.229Z,73.00
2023-05-02T21:07:03.990Z,72.82
2023-05-02T21:09:31.706Z,73.12
2023-05-02T21:11:59.202Z,73.12
2023-05-02T21:14:26.759Z,73.01
2023-05-02T21:16:54.297Z,72.81
2023-05-02T21:19:22.034Z,73.29
2023-05-02T21:21:49.602Z,73.04
2023-05-02T21:24:17.687Z,73.09
2023-05-02T21:26:45.626Z,73.28
2023-05-02T21:29:15.037Z,73.04
2023-05-02T21:31:42.758Z,72.94
2023-05-02T21:34:11.033Z,73.03
2023-05-02T21:36:38.616Z,73.28
2023-05-02T21:39:06.338Z,73.03
2023-05-02T21:41:33.879Z,73.17
2023-05-02T21:44:01.400Z,72.77
2023-05-02T21:46:29.084Z,72.92
2023-05-02T21:48:56.867Z,72.99
2023-05-02T21:51:24.388Z,73.03
2023-05-02T21:58:07.040Z,73.78
2023-05-02T22:00:38.434Z,73.37
2023-05-02T22:03:08.657Z,73.70
2023-05-02T22:05:38.936Z,73.71
2023-05-02T22:08:07.925Z,73.61
2023-05-02T22:10:40.713Z,73.29
2023-05-02T22:13:12.432Z,73.61
2023-05-02T22:15:47.942Z,73.37
2023-05-02T22:18:17.169Z,73.47
2023-05-02T22:20:45.586Z,73.45
2023-05-02T22:23:13.524Z,73.10
2023-05-02T22:25:43.408Z,73.69
2023-05-02T22:28:12.284Z,73.30
2023-05-02T22:30:42.986Z,73.84
2023-05-02T22:33:12.173Z,73.66
2023-05-02T22:35:39.894Z,73.34
2023-05-02T22:38:11.045Z,73.68
2023-05-02T22:40:38.630Z,73.59
2023-05-02T22:43:06.143Z,73.38
2023-05-02T22:45:35.094Z,73.45
2023-05-02T22:48:02.665Z,73.48
2023-05-02T22:50:30.293Z,73.14
2023-05-02T22:52:58.812Z,73.06
2023-05-02T22:55:26.436Z,73.37
2023-05-02T22:57:57.030Z,73.38
2023-05-02T23:00:34.554Z,73.34
2023-05-02T23:03:02.809Z,73.24
2023-05-02T23:05:30.608Z,73.52
2023-05-02T23:07:58.248Z,73.65
2023-05-02T23:10:25.912Z,73.92
2023-05-02T23:12:53.494Z,73.90
2023-05-02T23:15:21.063Z,74.22
2023-05-02T23:17:49.225Z,74.20
2023-05-02T23:20:19.614Z,74.66
2023-05-02T23:22:47.409Z,74.33
2023-05-02T23:25:15.320Z,74.14
2023-05-02T23:27:42.975Z,74.89
2023-05-02T23:30:11.130Z,74.34
2023-05-02T23:32:39.485Z,74.81
2023-05-02T23:35:07.651Z,74.55
2023-05-02T23:37:35.325Z,75.05
2023-05-02T23:40:03.460Z,74.76
2023-05-02T23:42:32.149Z,74.63
2023-05-02T23:44:59.696Z,75.31
2023-05-02T23:47:27.339Z,75.14
2023-05-02T23:49:54.889Z,75.42
2023-05-02T23:52:22.445Z,75.56
2023-05-02T23:54:50.125Z,75.66
2023-05-02T23:57:17.732Z,75.27
2023-05-02T23:59:45.550Z,75.29
